Pagina principală
METAR-TAF:

METAR-TAF

Aeroporturi :

Larisa, Grecia

Latitudine: 39-38N, longitudine: 022-25E, elevație: 73 m

METAR: lipsă

Ora: 12:42 (09:42 UTC)

Prognoză

Raportul a fost făcut în urmă cu 1 oră și 42 de minute, la 08:00 UTC
Prognoză valabilă de la 17 ora 09 UTC la 17 ora 18 UTC
Vânt 3 kt din direcții variabile
Vizibilitate de 10 km sau mai mult
Nori puțini la o înălțime de 2500 picior
Devenind
de la 17 ora 09 UTC la 17 ora 11 UTC
Vânt 12 kt de la Est

TAF: LGLR 170800Z 1709/1718 VRB03KT 9999 FEW025 BECMG 1709/1711 09012KT

Observații și prognoze meteo pentru peste 4.000 de aeroporturi (rapoarte METAR și TAF).

Stațiile disponibile sunt reprezentate pe hartă prin puncte galbene și roșii.

Țineți indicatorul mouse-ului pe punctul dorit pentru a vedea denumirea stației.

Apoi, faceți clic pentru a vedea observațiile și prognozele meteorologice.

Pentru a schimba harta: Pentru mărire, faceți clic pe butoanele verzi cu cruce neagră; pentru micșorare, pe butonul verde cu o liniuță; pentru hărți învecinate, pe săgețile verzi.


METAR-TAF: